createdAt,value
2022-11-03T00:23:55.014Z,10.50
2022-11-03T00:38:46.625Z,10.40
2022-11-03T00:53:43.564Z,10.30
2022-11-03T01:08:38.857Z,10.25
2022-11-03T01:23:30.093Z,10.14
2022-11-03T01:38:20.710Z,10.00
2022-11-03T01:53:10.950Z,9.78
2022-11-03T02:08:14.149Z,9.63
2022-11-03T02:23:18.563Z,9.58
2022-11-03T02:38:13.944Z,9.51
2022-11-03T02:53:06.060Z,9.41
2022-11-03T03:07:57.299Z,9.32
2022-11-03T03:22:48.118Z,9.24
2022-11-03T03:37:44.015Z,9.12
2022-11-03T03:52:35.023Z,9.08
2022-11-03T04:07:45.124Z,9.21
2022-11-03T04:22:38.505Z,9.26
2022-11-03T04:37:29.422Z,9.19
2022-11-03T04:52:21.833Z,9.20
2022-11-03T05:07:26.321Z,9.04
2022-11-03T05:22:22.103Z,8.96
2022-11-03T05:37:36.076Z,8.90
2022-11-03T05:52:33.283Z,8.78
2022-11-03T06:07:29.938Z,8.62
2022-11-03T06:22:27.249Z,8.52
2022-11-03T06:37:22.286Z,8.58
2022-11-03T06:52:32.438Z,8.71
2022-11-03T07:07:30.050Z,8.90
2022-11-03T07:22:21.854Z,9.13
2022-11-03T07:37:18.960Z,9.32
2022-11-03T07:52:15.030Z,9.57
2022-11-03T08:07:07.139Z,9.84
2022-11-03T08:21:59.709Z,9.98
2022-11-03T08:36:52.487Z,10.27
2022-11-03T08:51:45.238Z,10.58
2022-11-03T09:06:37.506Z,10.95
2022-11-03T09:21:30.168Z,11.27
2022-11-03T09:36:21.929Z,11.51
2022-11-03T09:51:13.450Z,11.78
2022-11-03T10:06:06.271Z,11.97
2022-11-03T10:20:57.359Z,12.15
2022-11-03T10:35:48.562Z,12.31
2022-11-03T10:50:40.887Z,12.53
2022-11-03T11:05:31.783Z,12.65
2022-11-03T11:20:32.630Z,12.87
2022-11-03T11:35:29.562Z,12.98
2022-11-03T11:50:23.476Z,13.07
2022-11-03T12:05:18.080Z,13.11
2022-11-03T12:20:35.081Z,13.23
2022-11-03T12:35:32.275Z,13.29
2022-11-03T12:50:24.138Z,13.38
2022-11-03T13:05:15.782Z,13.42
2022-11-03T13:20:07.220Z,13.51
2022-11-03T13:34:59.749Z,13.49
2022-11-03T13:50:13.098Z,13.47
2022-11-03T14:19:45.945Z,13.59
2022-11-03T14:34:32.248Z,13.58
2022-11-03T15:04:15.289Z,13.58
2022-11-03T15:19:06.702Z,13.48
2022-11-03T16:03:40.186Z,13.20
2022-11-03T16:18:30.972Z,13.10
2022-11-03T16:33:22.085Z,12.93
2022-11-03T16:48:13.299Z,12.83
2022-11-03T17:03:05.026Z,12.71
2022-11-03T17:17:56.047Z,12.63
2022-11-03T17:32:47.256Z,12.55
2022-11-03T17:47:38.642Z,12.48
2022-11-03T18:02:31.170Z,12.51
2022-11-03T18:17:23.207Z,12.50
2022-11-03T18:32:14.806Z,12.44
2022-11-03T18:47:06.750Z,12.43
2022-11-03T19:01:58.060Z,12.38
2022-11-03T19:17:02.198Z,12.33
2022-11-03T19:31:42.003Z,12.29
2022-11-03T19:46:33.843Z,12.28
2022-11-03T20:01:25.918Z,12.24
2022-11-03T20:16:18.209Z,12.26
2022-11-03T20:31:10.097Z,12.25
2022-11-03T20:46:02.561Z,12.28
2022-11-03T21:00:56.250Z,12.29
2022-11-03T21:16:23.539Z,12.27
2022-11-03T21:31:04.049Z,12.30
2022-11-03T21:45:55.363Z,12.18
2022-11-03T22:00:46.655Z,12.13
2022-11-03T22:15:57.891Z,11.92
2022-11-03T22:31:12.455Z,11.83
2022-11-03T22:46:10.078Z,11.83
2022-11-03T23:01:07.213Z,11.85
2022-11-03T23:16:08.872Z,11.83
2022-11-03T23:31:04.184Z,11.88
2022-11-03T23:46:14.165Z,11.98
